createdAt,value
2018-04-07T00:00:33.936Z,5.6
2018-04-07T00:01:34.587Z,5.6
2018-04-07T00:02:35.236Z,5.6
2018-04-07T00:03:35.886Z,5.6
2018-04-07T00:04:36.536Z,5.7
2018-04-07T00:05:37.185Z,5.5
2018-04-07T00:06:37.836Z,5.5
2018-04-07T00:07:38.485Z,5.6
2018-04-07T00:08:39.137Z,5.5
2018-04-07T00:09:39.787Z,5.5
2018-04-07T00:10:40.438Z,5.5
2018-04-07T00:11:41.087Z,5.4
2018-04-07T00:12:41.738Z,5.4
2018-04-07T00:13:42.387Z,5.4
2018-04-07T00:14:43.038Z,5.4
2018-04-07T00:15:43.687Z,5.4
2018-04-07T00:16:44.337Z,5.4
2018-04-07T00:17:44.987Z,5.4
2018-04-07T00:18:45.637Z,5.4
2018-04-07T00:19:46.288Z,5.4
2018-04-07T00:20:46.937Z,5.3
2018-04-07T00:21:47.588Z,5.4
2018-04-07T00:22:48.237Z,5.3
2018-04-07T00:23:48.888Z,5.3
2018-04-07T00:24:49.537Z,5.4
2018-04-07T00:25:50.191Z,5.3
2018-04-07T00:26:50.838Z,5.3
2018-04-07T00:27:51.487Z,5.3
2018-04-07T00:28:52.137Z,5.3
2018-04-07T00:29:52.786Z,5.3
2018-04-07T00:30:53.437Z,5.3
2018-04-07T00:31:54.087Z,5.2
2018-04-07T00:32:54.741Z,5.2
2018-04-07T00:33:55.428Z,5.2
2018-04-07T00:34:56.076Z,5.2
2018-04-07T00:35:56.729Z,5.2
2018-04-07T00:36:57.411Z,5.1
2018-04-07T00:37:58.061Z,5.1
2018-04-07T00:38:58.712Z,5.1
2018-04-07T00:39:59.361Z,5.1
2018-04-07T00:41:00.022Z,5.1
2018-04-07T00:42:00.662Z,5.2
2018-04-07T00:43:01.313Z,5.1
2018-04-07T00:44:02.000Z,5.1
2018-04-07T00:45:02.650Z,5.1
2018-04-07T00:46:03.301Z,5.1
2018-04-07T00:47:03.949Z,5.2
2018-04-07T00:48:04.600Z,5.1
2018-04-07T00:49:05.250Z,5.1
2018-04-07T00:50:05.900Z,5.0
2018-04-07T00:51:06.551Z,5.0
2018-04-07T00:52:07.201Z,5.0
2018-04-07T00:53:07.851Z,5.0
2018-04-07T00:54:08.500Z,5.0
2018-04-07T00:55:09.150Z,5.0
2018-04-07T00:56:09.801Z,4.9
2018-04-07T00:57:10.449Z,4.9
2018-04-07T00:58:11.097Z,4.9
2018-04-07T00:59:11.752Z,5.0
2018-04-07T01:00:12.398Z,4.9
2018-04-07T01:01:13.049Z,4.9
2018-04-07T01:02:13.698Z,4.9
2018-04-07T01:03:14.349Z,4.9
2018-04-07T01:04:14.999Z,5.0
2018-04-07T01:05:15.648Z,4.8
2018-04-07T01:06:16.297Z,4.8
2018-04-07T01:07:16.983Z,4.8
2018-04-07T01:08:17.634Z,4.8
2018-04-07T01:09:18.285Z,4.8
2018-04-07T01:10:18.937Z,4.8
2018-04-07T01:11:19.585Z,4.8
2018-04-07T01:12:20.235Z,4.7
2018-04-07T01:13:20.889Z,4.8
2018-04-07T01:14:21.571Z,4.8
2018-04-07T01:15:22.222Z,4.8
2018-04-07T01:16:22.922Z,4.9
2018-04-07T01:17:23.575Z,4.7
2018-04-07T01:18:24.222Z,4.8
2018-04-07T01:19:24.874Z,4.8
2018-04-07T01:20:25.521Z,4.7
2018-04-07T01:21:26.172Z,4.8
2018-04-07T01:22:26.822Z,4.8
2018-04-07T01:23:27.471Z,4.8
2018-04-07T01:24:28.121Z,4.8
2018-04-07T01:25:28.775Z,4.8
2018-04-07T01:26:29.422Z,4.7
2018-04-07T01:27:30.074Z,4.8
2018-04-07T01:28:30.721Z,4.8
2018-04-07T01:29:31.371Z,4.8
2018-04-07T01:30:32.020Z,4.8
2018-04-07T01:31:32.668Z,4.8
2018-04-07T01:32:33.323Z,4.7
2018-04-07T01:33:33.969Z,4.7
2018-04-07T01:34:34.619Z,4.7
2018-04-07T01:35:35.267Z,4.7
2018-04-07T01:36:35.919Z,4.7
2018-04-07T01:37:36.569Z,4.8
2018-04-07T01:38:37.300Z,4.6
2018-04-07T01:39:37.882Z,4.7
2018-04-07T01:40:38.530Z,4.8
2018-04-07T01:41:39.183Z,4.6
2018-04-07T01:42:39.828Z,4.7
2018-04-07T01:43:40.476Z,4.7
2018-04-07T01:44:41.131Z,4.6
2018-04-07T01:45:41.777Z,4.7
2018-04-07T01:46:42.427Z,4.6
2018-04-07T01:47:43.076Z,4.6
2018-04-07T01:48:43.726Z,4.7
2018-04-07T01:49:44.376Z,4.7
2018-04-07T01:50:45.026Z,4.7
2018-04-07T01:51:45.680Z,4.6
2018-04-07T01:52:46.325Z,4.6
2018-04-07T01:53:46.974Z,4.5
2018-04-07T01:54:47.623Z,4.6
2018-04-07T01:55:48.274Z,4.6
2018-04-07T01:56:48.924Z,4.6
2018-04-07T01:57:49.572Z,4.6
2018-04-07T01:58:50.221Z,4.6
2018-04-07T01:59:50.873Z,4.6
2018-04-07T02:00:51.521Z,4.5
2018-04-07T02:01:52.172Z,4.5
2018-04-07T02:02:52.823Z,4.5
2018-04-07T02:03:53.477Z,4.5
2018-04-07T02:04:54.157Z,4.5
2018-04-07T02:05:54.805Z,4.6
2018-04-07T02:06:55.454Z,4.5
2018-04-07T02:07:56.103Z,4.5
2018-04-07T02:08:56.788Z,4.5
2018-04-07T02:09:57.438Z,4.6
2018-04-07T02:10:58.088Z,4.5
2018-04-07T02:11:58.740Z,4.5
2018-04-07T02:12:59.387Z,4.6
2018-04-07T02:14:00.073Z,4.6
2018-04-07T02:15:00.727Z,4.6
2018-04-07T02:16:01.373Z,4.7
2018-04-07T02:17:02.058Z,4.8
2018-04-07T02:18:02.709Z,4.8
2018-04-07T02:19:03.357Z,4.8
2018-04-07T02:20:04.013Z,4.8
2018-04-07T02:21:04.659Z,4.8
2018-04-07T02:22:05.307Z,4.9
2018-04-07T02:23:05.994Z,4.9
2018-04-07T02:24:06.643Z,4.8
2018-04-07T02:25:07.294Z,4.8
2018-04-07T02:26:07.943Z,4.9
2018-04-07T02:27:08.594Z,5.0
2018-04-07T02:28:09.242Z,4.9
2018-04-07T02:29:09.891Z,4.9
2018-04-07T02:30:10.542Z,4.9
2018-04-07T02:31:11.192Z,5.0
2018-04-07T02:32:11.841Z,5.0
2018-04-07T02:33:12.530Z,5.0
2018-04-07T02:34:13.177Z,5.0
2018-04-07T02:35:13.825Z,5.0
2018-04-07T02:36:14.476Z,5.1
2018-04-07T02:37:15.164Z,5.0
2018-04-07T02:38:15.815Z,5.1
2018-04-07T02:39:16.464Z,5.0
2018-04-07T02:40:17.152Z,5.1
2018-04-07T02:41:17.801Z,4.9
2018-04-07T02:42:18.452Z,5.1
2018-04-07T02:43:19.100Z,5.1
2018-04-07T02:44:19.748Z,5.1
2018-04-07T02:45:20.443Z,5.1
2018-04-07T02:46:21.122Z,5.1
2018-04-07T02:47:21.776Z,5.1
2018-04-07T02:48:22.422Z,5.1
2018-04-07T02:49:23.071Z,5.1
2018-04-07T02:50:23.739Z,5.0
2018-04-07T02:51:24.369Z,5.0
2018-04-07T02:52:25.019Z,5.0
2018-04-07T02:53:25.669Z,4.9
2018-04-07T02:54:26.320Z,4.9
2018-04-07T02:55:26.967Z,4.9
2018-04-07T02:56:27.662Z,5.0
2018-04-07T02:57:28.340Z,4.9
2018-04-07T02:58:28.990Z,4.9
2018-04-07T02:59:29.677Z,4.9
2018-04-07T03:00:30.327Z,4.9
2018-04-07T03:01:30.975Z,4.8
2018-04-07T03:02:31.626Z,4.8
2018-04-07T03:03:32.275Z,4.8
2018-04-07T03:04:32.926Z,4.8
2018-04-07T03:05:33.573Z,4.8
2018-04-07T03:06:34.223Z,4.9
2018-04-07T03:07:34.871Z,4.8
2018-04-07T03:08:35.527Z,4.7
2018-04-07T03:09:36.169Z,4.7
2018-04-07T03:10:36.820Z,4.7
2018-04-07T03:11:37.467Z,4.6
2018-04-07T03:12:38.117Z,4.7
2018-04-07T03:13:38.767Z,4.6
2018-04-07T03:14:39.417Z,4.7
2018-04-07T03:15:40.066Z,4.7
2018-04-07T03:16:40.714Z,4.6
2018-04-07T03:17:41.402Z,4.6
2018-04-07T03:18:42.051Z,4.6
2018-04-07T03:19:42.702Z,4.6
2018-04-07T03:20:43.357Z,4.6
2018-04-07T03:21:44.000Z,4.6
2018-04-07T03:22:44.650Z,4.5
2018-04-07T03:23:45.297Z,4.5
2018-04-07T03:24:45.948Z,4.5
2018-04-07T03:25:46.597Z,4.5
2018-04-07T03:26:47.283Z,4.5
2018-04-07T03:27:47.970Z,4.5
2018-04-07T03:28:48.656Z,4.5
2018-04-07T03:29:49.306Z,4.5
2018-04-07T03:30:49.957Z,4.5
2018-04-07T03:31:50.606Z,4.4
2018-04-07T03:32:51.255Z,4.4
2018-04-07T03:33:51.905Z,4.5
2018-04-07T03:34:52.558Z,4.4
2018-04-07T03:35:53.207Z,4.5
2018-04-07T03:36:53.891Z,4.4
2018-04-07T03:37:54.543Z,4.4
2018-04-07T03:38:55.192Z,4.5
2018-04-07T03:39:55.842Z,4.4
2018-04-07T03:40:56.490Z,4.4
2018-04-07T03:41:57.144Z,4.4
2018-04-07T03:42:57.789Z,4.4
2018-04-07T03:43:58.439Z,4.3
2018-04-07T03:44:59.089Z,4.3
2018-04-07T03:45:59.738Z,4.3
2018-04-07T03:47:00.388Z,4.3
2018-04-07T03:48:01.041Z,4.2
2018-04-07T03:49:01.690Z,4.2
2018-04-07T03:50:02.339Z,4.4
2018-04-07T03:51:02.990Z,4.2
2018-04-07T03:52:03.642Z,4.2
2018-04-07T03:53:04.289Z,4.3
2018-04-07T03:54:04.937Z,4.3
2018-04-07T03:55:05.590Z,4.2
2018-04-07T03:56:06.236Z,4.2
2018-04-07T03:57:06.894Z,4.1
2018-04-07T03:58:07.535Z,4.1
2018-04-07T03:59:08.184Z,4.1
2018-04-07T04:00:08.837Z,4.1
2018-04-07T04:01:09.482Z,4.2
2018-04-07T04:02:10.132Z,4.1
2018-04-07T04:03:10.781Z,4.1
2018-04-07T04:04:11.432Z,4.0
2018-04-07T04:05:12.080Z,4.0
2018-04-07T04:06:12.730Z,4.0
2018-04-07T04:07:13.378Z,4.0
2018-04-07T04:08:14.030Z,4.1
2018-04-07T04:09:14.677Z,4.1
2018-04-07T04:10:15.331Z,4.0
2018-04-07T04:11:15.977Z,4.0
2018-04-07T04:12:16.627Z,4.1
2018-04-07T04:13:17.275Z,4.0
2018-04-07T04:14:17.924Z,4.0
2018-04-07T04:15:18.574Z,4.0
2018-04-07T04:16:19.224Z,4.0
2018-04-07T04:17:19.873Z,3.9
2018-04-07T04:18:20.523Z,4.0
2018-04-07T04:19:21.177Z,3.9
2018-04-07T04:20:21.827Z,3.9
2018-04-07T04:21:22.478Z,3.8
2018-04-07T04:22:23.128Z,3.9
2018-04-07T04:23:23.786Z,3.9
2018-04-07T04:24:24.465Z,3.9
2018-04-07T04:25:25.117Z,3.9
2018-04-07T04:26:25.766Z,3.9
2018-04-07T04:27:26.417Z,3.9
2018-04-07T04:28:27.071Z,3.9
2018-04-07T04:29:27.755Z,3.9
2018-04-07T04:30:28.406Z,3.9
2018-04-07T04:31:29.057Z,3.8
2018-04-07T04:32:29.707Z,3.9
2018-04-07T04:33:30.357Z,3.8
2018-04-07T04:34:31.008Z,3.9
2018-04-07T04:35:31.662Z,3.8
2018-04-07T04:36:32.311Z,3.9
2018-04-07T04:37:32.963Z,3.9
2018-04-07T04:38:33.613Z,3.9
2018-04-07T04:39:34.266Z,3.8
2018-04-07T04:40:34.953Z,3.9
2018-04-07T04:41:35.605Z,3.8
2018-04-07T04:42:36.254Z,3.9
2018-04-07T04:43:36.907Z,3.9
2018-04-07T04:44:37.558Z,3.9
2018-04-07T04:45:38.210Z,3.9
2018-04-07T04:46:38.898Z,3.8
2018-04-07T04:47:39.585Z,3.8
2018-04-07T04:48:40.237Z,3.9
2018-04-07T04:49:40.889Z,3.9
2018-04-07T04:50:41.546Z,3.8
2018-04-07T04:51:42.195Z,3.8
2018-04-07T04:52:42.846Z,3.8
2018-04-07T04:53:43.499Z,3.9
2018-04-07T04:54:44.188Z,3.9
2018-04-07T04:55:44.840Z,3.9
2018-04-07T04:56:45.528Z,3.9
2018-04-07T04:57:46.180Z,3.9
2018-04-07T04:58:46.833Z,3.9
2018-04-07T04:59:47.488Z,3.9
2018-04-07T05:00:48.138Z,3.8
2018-04-07T05:01:48.792Z,3.9
2018-04-07T05:02:49.443Z,3.9
2018-04-07T05:03:50.095Z,3.9
2018-04-07T05:04:50.747Z,4.0
2018-04-07T05:05:51.401Z,4.0
2018-04-07T05:06:52.052Z,3.9
2018-04-07T05:07:52.704Z,3.9
2018-04-07T05:08:53.355Z,3.8
2018-04-07T05:09:54.009Z,3.9
2018-04-07T05:10:54.661Z,3.9
2018-04-07T05:11:55.317Z,3.9
2018-04-07T05:12:55.969Z,3.9
2018-04-07T05:13:56.622Z,3.9
2018-04-07T05:14:57.274Z,4.0
2018-04-07T05:15:57.929Z,4.0
2018-04-07T05:16:58.583Z,4.0
2018-04-07T05:17:59.236Z,4.1
2018-04-07T05:18:59.889Z,4.1
2018-04-07T05:20:00.543Z,4.1
2018-04-07T05:21:01.196Z,4.0
2018-04-07T05:22:01.854Z,4.0
2018-04-07T05:23:02.507Z,4.1
2018-04-07T05:24:03.196Z,4.2
2018-04-07T05:25:03.850Z,4.2
2018-04-07T05:26:04.502Z,4.2
2018-04-07T05:27:05.156Z,4.2
2018-04-07T05:28:05.810Z,4.3
2018-04-07T05:29:06.514Z,4.2
2018-04-07T05:30:07.169Z,4.3
2018-04-07T05:31:07.822Z,4.2
2018-04-07T05:32:08.478Z,4.3
2018-04-07T05:33:09.129Z,4.3
2018-04-07T05:34:09.784Z,4.4
2018-04-07T05:35:10.438Z,4.5
2018-04-07T05:36:11.093Z,4.5
2018-04-07T05:37:11.743Z,4.7
2018-04-07T05:38:12.397Z,4.8
2018-04-07T05:39:13.049Z,4.9
2018-04-07T05:40:13.706Z,4.9
2018-04-07T05:41:14.361Z,5.0
2018-04-07T05:42:15.013Z,5.1
2018-04-07T05:43:15.703Z,5.1
2018-04-07T05:44:16.356Z,5.2
2018-04-07T05:45:17.010Z,5.2
2018-04-07T05:46:17.665Z,5.2
2018-04-07T05:47:18.320Z,5.2
2018-04-07T05:48:18.972Z,5.4
2018-04-07T05:49:19.626Z,5.4
2018-04-07T05:50:20.278Z,5.4
2018-04-07T05:51:20.934Z,5.4
2018-04-07T05:52:21.588Z,5.5
2018-04-07T05:53:22.241Z,5.6
2018-04-07T05:54:22.895Z,5.7
2018-04-07T05:55:23.549Z,5.7
2018-04-07T05:56:24.204Z,5.8
2018-04-07T05:57:24.894Z,5.8
2018-04-07T05:58:25.547Z,5.9
2018-04-07T05:59:26.201Z,5.9
2018-04-07T06:00:26.856Z,5.9
2018-04-07T06:01:27.511Z,6.0
2018-04-07T06:02:28.166Z,6.0
2018-04-07T06:03:28.833Z,6.0
2018-04-07T06:04:29.477Z,6.1
2018-04-07T06:05:30.129Z,6.1
2018-04-07T06:06:30.782Z,6.1
2018-04-07T06:07:31.442Z,6.1
2018-04-07T06:08:32.094Z,6.2
2018-04-07T06:09:32.748Z,6.2
2018-04-07T06:10:33.403Z,6.2
2018-04-07T06:11:34.058Z,6.1
2018-04-07T06:12:34.712Z,6.2
2018-04-07T06:13:35.367Z,6.3
2018-04-07T06:14:36.023Z,6.2
2018-04-07T06:15:36.714Z,6.4
2018-04-07T06:16:37.368Z,6.4
2018-04-07T06:17:38.023Z,6.4
2018-04-07T06:18:38.677Z,6.4
2018-04-07T06:19:39.333Z,6.4
2018-04-07T06:20:39.987Z,6.4
2018-04-07T06:21:40.642Z,6.5
2018-04-07T06:22:41.300Z,6.5
2018-04-07T06:23:41.952Z,6.6
2018-04-07T06:24:42.606Z,6.6
2018-04-07T06:25:43.266Z,6.6
2018-04-07T06:26:43.917Z,6.7
2018-04-07T06:27:44.570Z,6.7
2018-04-07T06:28:45.234Z,6.7
2018-04-07T06:29:45.965Z,6.7
2018-04-07T06:30:46.619Z,6.7
2018-04-07T06:31:47.276Z,6.9
2018-04-07T06:32:47.929Z,6.9
2018-04-07T06:33:48.584Z,6.8
2018-04-07T06:34:49.259Z,6.9
2018-04-07T06:35:49.893Z,6.9
2018-04-07T06:36:50.548Z,6.9
2018-04-07T06:37:51.204Z,7.0
2018-04-07T06:38:51.859Z,7.1
2018-04-07T06:39:52.513Z,7.1
2018-04-07T06:40:53.168Z,7.2
2018-04-07T06:41:53.822Z,7.1
2018-04-07T06:42:54.478Z,7.2
2018-04-07T06:43:55.138Z,7.2
2018-04-07T06:44:55.790Z,7.2
2018-04-07T06:45:56.443Z,7.2
2018-04-07T06:46:57.102Z,7.3
2018-04-07T06:47:57.755Z,7.3
2018-04-07T06:48:58.412Z,7.4
2018-04-07T06:49:59.068Z,7.5
2018-04-07T06:50:59.723Z,7.5
2018-04-07T06:52:00.378Z,7.6
2018-04-07T06:53:01.036Z,7.7
2018-04-07T06:54:01.692Z,7.7
2018-04-07T06:55:02.393Z,7.8
2018-04-07T06:56:03.008Z,8.0
2018-04-07T06:57:03.667Z,8.2
2018-04-07T06:58:04.358Z,8.6
2018-04-07T06:59:05.015Z,9.0
2018-04-07T07:00:05.673Z,9.9
2018-04-07T07:01:06.332Z,10.5
2018-04-07T07:02:06.991Z,11.4
2018-04-07T07:03:07.651Z,12.2
2018-04-07T07:04:08.313Z,13.1
2018-04-07T07:05:08.973Z,14.0
2018-04-07T07:06:09.635Z,14.7
2018-04-07T07:07:10.295Z,15.1
2018-04-07T07:08:10.953Z,15.9
2018-04-07T07:09:11.614Z,16.3
2018-04-07T07:10:12.276Z,16.8
2018-04-07T07:11:12.936Z,17.4
2018-04-07T07:12:13.597Z,18.0
2018-04-07T07:13:14.257Z,18.7
2018-04-07T07:14:14.919Z,19.0
2018-04-07T07:15:15.584Z,19.6
2018-04-07T07:16:16.247Z,20.1
2018-04-07T07:17:16.910Z,20.6
2018-04-07T07:18:17.623Z,21.1
2018-04-07T07:19:18.234Z,21.6
2018-04-07T07:20:18.932Z,21.8
2018-04-07T07:21:19.596Z,21.9
2018-04-07T07:22:20.263Z,22.2
2018-04-07T07:23:20.926Z,22.5
2018-04-07T07:24:21.586Z,22.9
2018-04-07T07:25:22.253Z,22.9
2018-04-07T07:26:22.918Z,23.3
2018-04-07T07:27:23.583Z,23.6
2018-04-07T07:28:24.246Z,23.8
2018-04-07T07:29:24.910Z,23.9
2018-04-07T07:30:25.611Z,23.8
2018-04-07T07:31:26.275Z,23.6
2018-04-07T07:32:26.940Z,23.8
2018-04-07T07:33:27.647Z,23.9
2018-04-07T07:34:28.307Z,23.9
2018-04-07T07:35:28.974Z,23.9
2018-04-07T07:36:29.708Z,24.1
2018-04-07T07:37:30.339Z,24.1
2018-04-07T07:38:31.004Z,24.1
2018-04-07T07:39:31.676Z,24.4
2018-04-07T07:40:32.339Z,24.7
2018-04-07T07:41:33.005Z,25.1
2018-04-07T07:42:33.707Z,25.2
2018-04-07T07:43:34.374Z,25.0
2018-04-07T07:44:35.038Z,24.5
2018-04-07T07:45:35.705Z,24.1
2018-04-07T07:46:36.373Z,24.1
2018-04-07T07:47:37.042Z,24.3
2018-04-07T07:48:37.709Z,24.1
2018-04-07T07:49:38.379Z,24.4
2018-04-07T07:50:39.081Z,24.3
2018-04-07T07:51:39.748Z,24.3
2018-04-07T07:52:40.414Z,24.3
2018-04-07T07:53:41.082Z,24.6
2018-04-07T07:54:41.750Z,25.0
2018-04-07T07:55:42.420Z,25.2
2018-04-07T07:56:43.088Z,25.6
2018-04-07T07:57:43.754Z,25.7
2018-04-07T07:58:44.423Z,25.5
2018-04-07T07:59:45.128Z,25.1
2018-04-07T08:00:45.794Z,24.7
2018-04-07T08:01:46.464Z,24.8
2018-04-07T08:02:47.137Z,25.2
2018-04-07T08:03:47.803Z,25.6
2018-04-07T08:04:48.469Z,25.8
2018-04-07T08:05:49.136Z,26.0
2018-04-07T08:06:49.804Z,26.0
2018-04-07T08:07:50.474Z,26.0
2018-04-07T08:08:51.142Z,25.7
2018-04-07T08:09:51.809Z,25.7
2018-04-07T08:10:52.480Z,25.7
2018-04-07T08:11:53.149Z,25.9
2018-04-07T08:12:53.817Z,25.9
2018-04-07T08:13:54.486Z,25.9
2018-04-07T08:14:55.154Z,25.8
2018-04-07T08:15:55.822Z,25.9
2018-04-07T08:16:56.495Z,25.9
2018-04-07T08:17:57.199Z,25.8
2018-04-07T08:18:57.869Z,25.8
2018-04-07T08:19:58.539Z,26.0
2018-04-07T08:20:59.214Z,26.2
2018-04-07T08:21:59.919Z,26.2
2018-04-07T08:23:00.583Z,26.2
2018-04-07T08:24:01.254Z,26.2
2018-04-07T08:25:01.925Z,25.9
2018-04-07T08:26:02.593Z,26.1
2018-04-07T08:27:03.263Z,26.1
2018-04-07T08:28:03.934Z,26.2
2018-04-07T08:29:04.604Z,26.0
2018-04-07T08:30:05.310Z,26.0
2018-04-07T08:31:06.029Z,26.1
2018-04-07T08:32:06.747Z,26.1
2018-04-07T08:33:07.365Z,26.2
2018-04-07T08:34:08.035Z,26.4
2018-04-07T08:35:08.700Z,26.7
2018-04-07T08:36:09.370Z,26.9
2018-04-07T08:37:14.776Z,26.7
2018-04-07T08:38:10.710Z,26.7
2018-04-07T08:39:11.378Z,26.4
2018-04-07T08:40:12.046Z,26.5
2018-04-07T08:41:12.745Z,26.6
2018-04-07T08:42:13.384Z,26.8
2018-04-07T08:43:14.091Z,27.0
2018-04-07T08:44:14.760Z,26.8
2018-04-07T08:45:15.431Z,26.4
2018-04-07T08:46:16.100Z,26.4
2018-04-07T08:47:16.771Z,26.0
2018-04-07T08:48:17.439Z,26.0
2018-04-07T08:49:18.109Z,25.8
2018-04-07T08:50:18.778Z,25.7
2018-04-07T08:51:19.444Z,25.2
2018-04-07T08:52:20.112Z,25.3
2018-04-07T08:53:20.782Z,25.6
2018-04-07T08:54:21.454Z,25.5
2018-04-07T08:55:22.124Z,24.9
2018-04-07T08:56:22.797Z,24.3
2018-04-07T08:57:23.532Z,24.2
2018-04-07T08:58:24.166Z,24.4
2018-04-07T08:59:24.834Z,24.8
2018-04-07T09:00:25.503Z,24.8
2018-04-07T09:01:26.173Z,24.8
2018-04-07T09:02:26.842Z,24.9
2018-04-07T09:03:27.511Z,24.8
2018-04-07T09:04:28.177Z,24.8
2018-04-07T09:05:28.845Z,24.6
2018-04-07T09:06:29.549Z,24.6
2018-04-07T09:07:30.220Z,24.2
2018-04-07T09:08:30.890Z,24.1
2018-04-07T09:09:31.560Z,23.8
2018-04-07T09:10:32.228Z,23.9
2018-04-07T09:11:32.932Z,23.8
2018-04-07T09:12:33.604Z,23.7
2018-04-07T09:13:34.307Z,23.4
2018-04-07T09:14:35.011Z,23.5
2018-04-07T09:15:35.682Z,23.8
2018-04-07T09:16:36.347Z,24.0
2018-04-07T09:17:37.013Z,24.4
2018-04-07T09:18:37.685Z,24.7
2018-04-07T09:19:38.350Z,24.8
2018-04-07T09:20:39.014Z,25.0
2018-04-07T09:21:39.684Z,25.1
2018-04-07T09:22:40.356Z,25.3
2018-04-07T09:23:41.020Z,25.4
2018-04-07T09:24:41.723Z,25.6
2018-04-07T09:25:42.392Z,25.0
2018-04-07T09:26:43.059Z,24.7
2018-04-07T09:27:43.728Z,24.6
2018-04-07T09:28:44.396Z,24.7
2018-04-07T09:29:45.065Z,25.0
2018-04-07T09:30:45.733Z,25.1
2018-04-07T09:31:46.400Z,25.1
2018-04-07T09:32:47.068Z,25.3
2018-04-07T09:33:47.737Z,25.3
2018-04-07T09:34:48.405Z,25.5
2018-04-07T09:35:49.072Z,25.6
2018-04-07T09:36:49.746Z,25.7
2018-04-07T09:37:50.410Z,25.7
2018-04-07T09:38:51.080Z,25.7
2018-04-07T09:39:51.749Z,25.7
2018-04-07T09:40:52.417Z,25.8
2018-04-07T09:41:53.084Z,25.7
2018-04-07T09:42:53.753Z,25.7
2018-04-07T09:43:54.424Z,25.7
2018-04-07T09:44:55.088Z,25.7
2018-04-07T09:45:55.758Z,25.7
2018-04-07T09:46:56.465Z,25.7
2018-04-07T09:47:57.132Z,25.7
2018-04-07T09:48:57.799Z,25.7
2018-04-07T09:49:58.468Z,25.6
2018-04-07T09:50:59.182Z,25.5
2018-04-07T09:51:59.805Z,25.5
2018-04-07T09:53:00.474Z,25.3
2018-04-07T09:54:01.144Z,25.3
2018-04-07T09:55:01.815Z,25.4
2018-04-07T09:56:02.489Z,25.4
2018-04-07T09:57:03.155Z,25.3
2018-04-07T09:58:03.818Z,25.3
2018-04-07T09:59:04.524Z,25.2
2018-04-07T10:00:05.192Z,25.2
2018-04-07T10:01:05.863Z,25.1
2018-04-07T10:02:06.531Z,25.1
2018-04-07T10:03:07.198Z,25.1
2018-04-07T10:04:07.865Z,25.0
2018-04-07T10:05:08.533Z,25.0
2018-04-07T10:06:09.202Z,24.8
2018-04-07T10:07:09.870Z,24.5
2018-04-07T10:08:10.537Z,24.3
2018-04-07T10:09:11.206Z,23.9
2018-04-07T10:10:11.877Z,23.7
2018-04-07T10:11:12.546Z,23.6
2018-04-07T10:12:13.215Z,23.5
2018-04-07T10:13:13.882Z,23.3
2018-04-07T10:14:14.551Z,23.0
2018-04-07T10:15:15.218Z,22.9
2018-04-07T10:16:15.887Z,22.8
2018-04-07T10:17:16.554Z,22.7
2018-04-07T10:18:17.228Z,22.7
2018-04-07T10:19:17.895Z,22.5
2018-04-07T10:20:18.564Z,22.4
2018-04-07T10:21:19.233Z,22.1
2018-04-07T10:22:19.896Z,22.1
2018-04-07T10:23:20.601Z,22.0
2018-04-07T10:24:21.268Z,21.8
2018-04-07T10:25:21.935Z,21.6
2018-04-07T10:26:22.609Z,21.5
2018-04-07T10:27:23.272Z,21.3
2018-04-07T10:28:23.939Z,21.3
2018-04-07T10:29:24.606Z,21.1
2018-04-07T10:30:25.272Z,21.1
2018-04-07T10:31:25.938Z,21.0
2018-04-07T10:32:26.606Z,20.9
2018-04-07T10:33:27.272Z,20.7
2018-04-07T10:34:27.941Z,20.6
2018-04-07T10:35:28.814Z,20.4
2018-04-07T10:36:29.476Z,20.1
2018-04-07T10:37:30.142Z,20.1
2018-04-07T10:38:30.807Z,20.0
2018-04-07T10:39:31.474Z,20.1
2018-04-07T10:40:32.145Z,20.0
2018-04-07T10:41:32.808Z,19.9
2018-04-07T10:42:33.475Z,19.9
2018-04-07T10:43:34.140Z,19.7
2018-04-07T10:44:34.805Z,19.6
2018-04-07T10:45:35.472Z,19.6
2018-04-07T10:46:36.142Z,19.7
2018-04-07T10:47:36.806Z,19.8
2018-04-07T10:48:37.470Z,19.6
2018-04-07T10:49:38.141Z,19.7
2018-04-07T10:50:38.804Z,19.5
2018-04-07T10:51:39.469Z,19.7
2018-04-07T10:52:40.163Z,19.6
2018-04-07T10:53:40.826Z,19.6
2018-04-07T10:54:41.493Z,19.6
2018-04-07T10:55:42.160Z,19.7
2018-04-07T10:56:42.826Z,19.7
2018-04-07T10:57:43.492Z,19.7
2018-04-07T10:58:44.158Z,19.8
2018-04-07T10:59:44.825Z,19.7
2018-04-07T11:00:45.489Z,19.8
2018-04-07T11:01:46.155Z,19.8
2018-04-07T11:02:46.819Z,19.7
2018-04-07T11:03:47.486Z,19.8
2018-04-07T11:04:48.152Z,19.9
2018-04-07T11:05:48.822Z,19.9
2018-04-07T11:06:49.485Z,19.9
2018-04-07T11:07:50.149Z,19.9
2018-04-07T11:08:50.814Z,20.0
2018-04-07T11:09:51.479Z,20.0
2018-04-07T11:10:52.146Z,20.0
2018-04-07T11:11:52.809Z,20.0
2018-04-07T11:12:53.475Z,20.1
2018-04-07T11:13:54.141Z,20.1
2018-04-07T11:14:54.806Z,20.1
2018-04-07T11:15:55.474Z,20.2
2018-04-07T11:16:56.174Z,20.2
2018-04-07T11:17:56.839Z,20.2
2018-04-07T11:18:57.508Z,20.3
2018-04-07T11:19:58.171Z,20.4
2018-04-07T11:20:58.874Z,20.4
2018-04-07T11:21:59.538Z,20.4
2018-04-07T11:23:00.204Z,20.3
2018-04-07T11:24:00.869Z,20.4
2018-04-07T11:25:01.535Z,20.4
2018-04-07T11:26:02.202Z,20.4
2018-04-07T11:27:02.867Z,20.5
2018-04-07T11:28:03.532Z,20.4
2018-04-07T11:29:04.198Z,20.5
2018-04-07T11:30:04.865Z,20.5
2018-04-07T11:31:05.530Z,20.6
2018-04-07T11:32:06.195Z,20.6
2018-04-07T11:33:06.865Z,20.6
2018-04-07T11:34:07.563Z,20.7
2018-04-07T11:35:08.229Z,20.7
2018-04-07T11:36:08.897Z,20.7
2018-04-07T11:37:09.565Z,20.7
2018-04-07T11:38:10.232Z,20.8
2018-04-07T11:39:10.897Z,20.7
2018-04-07T11:40:11.562Z,20.9
2018-04-07T11:41:12.228Z,20.8
2018-04-07T11:42:12.893Z,20.8
2018-04-07T11:43:13.559Z,20.9
2018-04-07T11:44:14.224Z,20.9
2018-04-07T11:45:14.928Z,21.0
2018-04-07T11:46:15.595Z,21.0
2018-04-07T11:47:16.260Z,21.0
2018-04-07T11:48:16.925Z,21.0
2018-04-07T11:49:17.590Z,21.0
2018-04-07T11:50:18.255Z,21.1
2018-04-07T11:51:18.921Z,21.1
2018-04-07T11:52:19.594Z,21.1
2018-04-07T11:53:20.290Z,21.2
2018-04-07T11:54:20.956Z,21.3
2018-04-07T11:55:21.621Z,21.4
2018-04-07T11:56:22.286Z,21.5
2018-04-07T11:57:22.953Z,21.5
2018-04-07T11:58:23.638Z,21.6
2018-04-07T11:59:24.288Z,21.7
2018-04-07T12:00:24.951Z,21.6
2018-04-07T12:01:25.619Z,21.7
2018-04-07T12:02:26.351Z,21.6
2018-04-07T12:03:27.003Z,21.6
2018-04-07T12:04:27.671Z,21.6
2018-04-07T12:05:28.336Z,21.7
2018-04-07T12:06:29.003Z,21.8
2018-04-07T12:07:29.669Z,21.9
2018-04-07T12:08:30.335Z,21.9
2018-04-07T12:09:31.000Z,21.9
2018-04-07T12:10:31.665Z,22.0
2018-04-07T12:11:32.361Z,22.0
2018-04-07T12:12:33.001Z,22.1
2018-04-07T12:13:33.666Z,22.0
2018-04-07T12:14:34.332Z,22.1
2018-04-07T12:15:34.997Z,22.1
2018-04-07T12:16:35.664Z,22.2
2018-04-07T12:17:36.330Z,22.2
2018-04-07T12:18:36.995Z,22.2
2018-04-07T12:19:37.660Z,22.2
2018-04-07T12:20:38.327Z,22.2
2018-04-07T12:21:38.994Z,22.3
2018-04-07T12:22:39.661Z,22.3
2018-04-07T12:23:40.326Z,22.3
2018-04-07T12:24:40.993Z,22.3
2018-04-07T12:25:41.660Z,22.4
2018-04-07T12:26:42.327Z,22.4
2018-04-07T12:27:42.992Z,22.3
2018-04-07T12:28:43.658Z,22.4
2018-04-07T12:29:44.326Z,22.4
2018-04-07T12:30:44.992Z,22.5
2018-04-07T12:31:45.658Z,22.5
2018-04-07T12:32:46.324Z,22.5
2018-04-07T12:33:46.990Z,22.5
2018-04-07T12:34:47.658Z,22.5
2018-04-07T12:35:48.326Z,22.5
2018-04-07T12:36:48.991Z,22.5
2018-04-07T12:37:49.658Z,22.5
2018-04-07T12:38:50.327Z,22.5
2018-04-07T12:39:50.993Z,22.5
2018-04-07T12:40:51.661Z,22.5
2018-04-07T12:41:52.326Z,22.5
2018-04-07T12:42:52.992Z,22.6
2018-04-07T12:43:53.658Z,22.5
2018-04-07T12:44:54.325Z,22.5
2018-04-07T12:45:54.991Z,22.6
2018-04-07T12:46:55.657Z,22.7
2018-04-07T12:47:56.324Z,22.5
2018-04-07T12:48:56.992Z,22.7
2018-04-07T12:49:57.658Z,22.7
2018-04-07T12:50:58.323Z,22.8
2018-04-07T12:51:58.989Z,22.8
2018-04-07T12:52:59.656Z,22.7
2018-04-07T12:54:00.321Z,22.8
2018-04-07T12:55:00.989Z,22.9
2018-04-07T12:56:01.658Z,22.9
2018-04-07T12:57:02.325Z,22.9
2018-04-07T12:58:02.994Z,22.9
2018-04-07T12:59:03.747Z,23.0
2018-04-07T13:00:04.415Z,22.9
2018-04-07T13:01:05.115Z,23.0
2018-04-07T13:02:05.780Z,23.1
2018-04-07T13:03:06.447Z,23.0
2018-04-07T13:04:07.167Z,23.1
2018-04-07T13:05:07.832Z,23.2
2018-04-07T13:06:08.498Z,23.3
2018-04-07T13:07:09.167Z,23.3
2018-04-07T13:08:09.833Z,23.3
2018-04-07T13:09:10.499Z,23.4
2018-04-07T13:10:11.166Z,23.4
2018-04-07T13:11:11.836Z,23.4
2018-04-07T13:12:12.500Z,23.4
2018-04-07T13:13:13.206Z,23.5
2018-04-07T13:14:13.875Z,23.5
2018-04-07T13:15:14.544Z,23.6
2018-04-07T13:16:15.211Z,23.5
2018-04-07T13:17:15.878Z,23.5
2018-04-07T13:18:16.544Z,23.6
2018-04-07T13:19:17.211Z,23.6
2018-04-07T13:20:17.878Z,23.6
2018-04-07T13:21:18.544Z,23.7
2018-04-07T13:22:19.211Z,23.7
2018-04-07T13:23:19.879Z,23.7
2018-04-07T13:24:20.553Z,23.8
2018-04-07T13:25:21.214Z,23.7
2018-04-07T13:26:21.880Z,23.7
2018-04-07T13:27:22.582Z,23.8
2018-04-07T13:28:23.214Z,23.7
2018-04-07T13:29:23.879Z,23.7
2018-04-07T13:30:24.546Z,23.8
2018-04-07T13:31:25.217Z,23.8
2018-04-07T13:32:25.926Z,23.8
2018-04-07T13:33:38.368Z,23.7
2018-04-07T13:34:27.252Z,23.7
2018-04-07T13:35:27.921Z,23.8
2018-04-07T13:36:28.585Z,23.8
2018-04-07T13:37:29.252Z,23.6
2018-04-07T13:38:29.921Z,23.8
2018-04-07T13:39:30.588Z,23.7
2018-04-07T13:40:31.302Z,23.7
2018-04-07T13:41:31.958Z,23.8